Startpagina
METAR-TAF:

METAR-TAF

Vliegvelden :

Vlissingen, Nederland

breedte: 51-27N, lengte: 3-36E, hoogte: 10 m

Actueel weer

Dit bericht is 20 minuten geleden gemaakt, om 18:55 UTC
Wind 18 kt uit het westzuidwesten, variërend tussen het zuidzuidwesten en het westen
Temperatuur 12°C
Vochtigheid 76%
Druk 1016 hPa
Zicht 10 km of meer
Verspreide wolken op 2800 ft
Gebroken wolken op 3200 ft

METAR: EHFS 231855Z AUTO 24018KT 210V270 9999 SCT028 BKN032 12/08 Q1016 W///H///

Tijdstip: 21:15 (19:15 UTC)


TAF: ontbreekt

Waarnemingen en weersverwachtingen van meer dan 4000 vliegvelden (METAR en TAF).

De beschikbare stations zijn de gele en rode punten op de kaart.

Ga met uw muis naar het station om de naam te zien.

Klik dan om waarnemingen en weersverwachtingen te zien.

kaart wijzigen: klik op de groene knoppen met een zwart kruis om in te zoomen, op de groene knop met een streepje om uit te zoomen of op de groene pijlen voor aangrenzende kaarten.


METAR-TAF: